Time;durP1;ratioP1;P1;durP2;ratioP2;P2;SDS_P1;SDS_P2;PMS_P1;PMS_P2;Temp;Humidity;BMP_temperature;BMP_pressure;BME280_temperature;BME280_humidity;BME280_pressure;Samples;Min_cycle;Max_cycle;Signal;HPM_P1;HPM_P2
2020/12/01 00:00:07;;;;;;;;;;;;;;;2.16;100.00;98712.34;5056895;28;19948;-81
2020/12/01 00:02:32;;;;;;;;;;;;;;;2.09;100.00;98710.66;5056260;28;19913;-81
2020/12/01 00:04:58;;;;;;;;;;;;;;;2.16;100.00;98714.03;5056622;28;19971;-81
2020/12/01 00:07:23;;;;;;;;;;;;;;;2.27;100.00;98707.22;5041549;28;19913;-81
2020/12/01 00:09:49;;;;;;;;;;;;;;;2.28;100.00;98719.06;5041768;28;19913;-81
2020/12/01 00:12:14;;;;;;;;;;;;;;;2.20;100.00;98718.28;5042380;28;19947;-81
2020/12/01 00:14:39;;;;;;;;;;;;;;;2.30;100.00;98722.47;5044486;28;19912;-81
2020/12/01 00:17:04;;;;;;;;;;;;;;;2.15;100.00;98707.28;5062308;28;19920;-81
2020/12/01 00:19:30;;;;;;;;;;;;;;;2.22;100.00;98709.78;5042004;28;19913;-81
2020/12/01 00:21:55;;;;;;;;;;;;;;;2.24;100.00;98702.19;5042100;28;20441;-81
2020/12/01 00:24:20;;;;;;;;;;;;;;;2.25;100.00;98702.16;5061031;28;19917;-82
2020/12/01 00:26:46;;;;;;;;;;;;;;;2.21;100.00;98703.03;5044066;28;19923;-81
2020/12/01 00:29:11;;;;;;;;;;;;;;;2.25;100.00;98701.31;5060472;28;19916;-81
2020/12/01 00:31:40;;;;;;;;;;;;;;;2.18;100.00;98707.25;5058672;28;19913;-81
2020/12/01 00:34:07;;;;;;;;;;;;;;;2.22;100.00;98701.34;5042514;28;20337;-82
2020/12/01 00:36:32;;;;;;;;;;;;;;;2.18;100.00;98697.94;5047336;28;19913;-82
2020/12/01 00:38:57;;;;;;;;;;;;;;;2.27;100.00;98709.78;5038978;28;19921;-82
2020/12/01 00:41:23;;;;;;;;;;;;;;;2.28;100.00;98706.38;5054733;28;19913;-82
2020/12/01 00:43:48;;;;;;;;;;;;;;;2.21;100.00;98697.09;5055357;28;19924;-81
2020/12/01 00:46:14;;;;;;;;;;;;;;;2.26;100.00;98703.03;5056622;28;20293;-81
2020/12/01 00:48:39;;;;;;;;;;;;;;;2.25;100.00;98698.78;5057998;28;19952;-81
2020/12/01 00:51:04;;;;;;;;;;;;;;;2.26;100.00;98697.94;5045137;28;19924;-81
2020/12/01 00:53:30;;;;;;;;;;;;;;;2.17;100.00;98700.50;5022698;28;20007;-81
2020/12/01 00:55:55;;;;;;;;;;;;;;;2.17;100.00;98690.34;5050524;28;20033;-82
2020/12/01 00:58:20;;;;;;;;;;;;;;;2.19;100.00;98689.50;5057137;28;19958;-81
2020/12/01 01:00:46;;;;;;;;;;;;;;;2.24;100.00;98685.22;5052510;28;19921;-81
2020/12/01 01:03:11;;;;;;;;;;;;;;;2.26;100.00;98683.53;5052009;28;19940;-80
2020/12/01 01:05:37;;;;;;;;;;;;;;;2.21;100.00;98687.78;5062864;28;19985;-81
2020/12/01 01:08:02;;;;;;;;;;;;;;;2.25;100.00;98675.91;5057858;28;19924;-81
2020/12/01 01:10:29;;;;;;;;;;;;;;;2.25;100.00;98666.56;5043913;28;20218;-82
2020/12/01 01:12:54;;;;;;;;;;;;;;;2.23;100.00;98672.53;5054938;28;20000;-82
2020/12/01 01:15:22;;;;;;;;;;;;;;;2.18;100.00;98666.63;5063673;28;20400;-82
2020/12/01 01:17:47;;;;;;;;;;;;;;;2.27;100.00;98664.03;5058329;28;19932;-82
2020/12/01 01:20:13;;;;;;;;;;;;;;;2.17;100.00;98662.41;5043639;28;19913;-83
2020/12/01 01:22:38;;;;;;;;;;;;;;;2.22;100.00;98660.69;5047704;28;19917;-83
2020/12/01 01:25:04;;;;;;;;;;;;;;;2.19;100.00;98658.13;5061382;28;19952;-82
2020/12/01 01:27:29;;;;;;;;;;;;;;;2.21;100.00;98658.97;5056887;28;19917;-82
2020/12/01 01:29:55;;;;;;;;;;;;;;;2.19;100.00;98660.69;5045662;28;19913;-82
2020/12/01 01:32:20;;;;;;;;;;;;;;;2.15;100.00;98656.47;5035818;28;20298;-80
2020/12/01 01:34:45;;;;;;;;;;;;;;;2.18;100.00;98656.47;5053637;28;19913;-82
2020/12/01 01:37:11;;;;;;;;;;;;;;;2.16;100.00;98660.69;5052365;28;19941;-83
2020/12/01 01:39:36;;;;;;;;;;;;;;;2.25;100.00;98656.41;5044849;28;19913;-83
2020/12/01 01:42:05;;;;;;;;;;;;;;;2.14;100.00;98653.06;5048806;28;19917;-83
2020/12/01 01:44:31;;;;;;;;;;;;;;;2.18;100.00;98654.75;5042860;28;19920;-83
2020/12/01 01:47:13;;;;;;;;;;;;;;;2.21;100.00;98653.91;5044595;28;19925;-83
2020/12/01 01:49:39;;;;;;;;;;;;;;;2.22;100.00;98650.53;5040620;28;19944;-82
2020/12/01 01:52:12;;;;;;;;;;;;;;;2.24;100.00;98649.66;5024292;28;19940;-83
2020/12/01 01:54:37;;;;;;;;;;;;;;;2.22;100.00;98647.97;5025623;28;19935;-83
2020/12/01 01:57:02;;;;;;;;;;;;;;;2.13;100.00;98645.47;5057174;28;19917;-83
2020/12/01 01:59:28;;;;;;;;;;;;;;;2.18;100.00;98644.59;5040832;28;20293;-82
2020/12/01 02:01:53;;;;;;;;;;;;;;;2.12;100.00;98633.59;5057615;28;19927;-83
2020/12/01 02:04:19;;;;;;;;;;;;;;;2.20;100.00;98631.91;5063128;28;19971;-83
2020/12/01 02:06:45;;;;;;;;;;;;;;;2.14;100.00;98632.75;5044236;28;19971;-82
2020/12/01 02:09:16;;;;;;;;;;;;;;;2.21;100.00;98629.34;5041694;28;20011;-83
2020/12/01 02:11:42;;;;;;;;;;;;;;;2.18;100.00;98633.59;5045652;28;19939;-82
2020/12/01 02:14:13;;;;;;;;;;;;;;;2.16;100.00;98620.06;5061697;28;20393;-82
2020/12/01 02:16:44;;;;;;;;;;;;;;;2.17;100.00;98624.28;5053034;28;19957;-82
2020/12/01 02:19:11;;;;;;;;;;;;;;;2.17;100.00;98622.59;5042583;28;19917;-82
2020/12/01 02:21:38;;;;;;;;;;;;;;;2.16;100.00;98617.50;5052229;28;19913;-82
2020/12/01 02:24:04;;;;;;;;;;;;;;;2.16;100.00;98617.50;5064024;28;19971;-82
2020/12/01 02:26:30;;;;;;;;;;;;;;;2.17;100.00;98616.69;5061171;28;19912;-82
2020/12/01 02:28:56;;;;;;;;;;;;;;;2.27;100.00;98613.22;5063233;28;20024;-83
2020/12/01 02:31:21;;;;;;;;;;;;;;;2.23;99.53;98626.78;5062038;28;19924;-82
2020/12/01 02:33:47;;;;;;;;;;;;;;;2.22;100.00;98620.88;5046096;28;19944;-82
2020/12/01 02:36:12;;;;;;;;;;;;;;;2.19;100.00;98615.81;5041874;28;20024;-82
2020/12/01 02:38:37;;;;;;;;;;;;;;;2.17;100.00;98616.69;5057534;28;19923;-83
2020/12/01 02:41:03;;;;;;;;;;;;;;;2.25;100.00;98615.75;5060787;28;20430;-82
2020/12/01 02:43:28;;;;;;;;;;;;;;;2.17;100.00;98614.13;5061730;28;19920;-82
2020/12/01 02:45:53;;;;;;;;;;;;;;;2.26;100.00;98607.31;5063534;28;19924;-82
2020/12/01 02:48:19;;;;;;;;;;;;;;;2.22;100.00;98605.63;5061261;28;19917;-82
2020/12/01 02:50:44;;;;;;;;;;;;;;;2.17;100.00;98601.44;5045303;28;19947;-82
2020/12/01 02:53:09;;;;;;;;;;;;;;;2.20;100.00;98601.41;5048140;28;19948;-82
2020/12/01 02:55:34;;;;;;;;;;;;;;;2.23;100.00;98603.94;5042739;28;19913;-82
2020/12/01 02:58:00;;;;;;;;;;;;;;;2.34;100.00;98603.88;5053532;28;19916;-82
2020/12/01 03:00:25;;;;;;;;;;;;;;;2.21;100.00;98606.50;5061878;28;20380;-82
2020/12/01 03:02:51;;;;;;;;;;;;;;;2.26;100.00;98598.84;5063569;28;19916;-82
2020/12/01 03:05:16;;;;;;;;;;;;;;;2.29;100.00;98603.91;5062395;28;19931;-82
2020/12/01 03:07:41;;;;;;;;;;;;;;;2.30;100.00;98603.91;5028247;28;19948;-81
2020/12/01 03:10:06;;;;;;;;;;;;;;;2.37;100.00;98599.59;5042586;28;20354;-82
2020/12/01 03:12:32;;;;;;;;;;;;;;;2.33;100.00;98603.03;5059014;28;19921;-82
2020/12/01 03:14:58;;;;;;;;;;;;;;;2.34;100.00;98603.88;5061401;28;19917;-82
2020/12/01 03:17:23;;;;;;;;;;;;;;;2.36;99.31;98602.19;5048458;28;19917;-82
2020/12/01 03:19:49;;;;;;;;;;;;;;;2.32;100.00;98601.34;5053706;28;19916;-82
2020/12/01 03:22:14;;;;;;;;;;;;;;;2.31;100.00;98609.81;5056501;28;20291;-82
2020/12/01 03:24:39;;;;;;;;;;;;;;;2.35;100.00;98605.56;5041980;28;20352;-82
2020/12/01 03:27:05;;;;;;;;;;;;;;;2.28;100.00;98612.34;5030569;28;19917;-82
2020/12/01 03:29:30;;;;;;;;;;;;;;;2.23;100.00;98604.75;5063312;28;19935;-82
2020/12/01 03:31:55;;;;;;;;;;;;;;;2.33;100.00;98603.03;5058267;28;19927;-82
2020/12/01 03:34:21;;;;;;;;;;;;;;;2.27;100.00;98603.06;5043464;28;19921;-82
2020/12/01 03:36:46;;;;;;;;;;;;;;;2.34;100.00;98604.72;5046375;28;19928;-82
2020/12/01 03:39:11;;;;;;;;;;;;;;;2.26;100.00;98601.38;5063429;28;20297;-82
2020/12/01 03:41:37;;;;;;;;;;;;;;;2.31;100.00;98594.59;5061002;28;19979;-81
2020/12/01 03:44:02;;;;;;;;;;;;;;;2.26;100.00;98596.31;5043163;28;19925;-82
2020/12/01 03:46:28;;;;;;;;;;;;;;;2.26;100.00;98597.16;5053169;28;20322;-82
2020/12/01 03:48:53;;;;;;;;;;;;;;;2.19;100.00;98599.69;5063543;28;19920;-81
2020/12/01 03:51:19;;;;;;;;;;;;;;;2.32;100.00;98592.88;5054796;28;19917;-82
2020/12/01 03:53:44;;;;;;;;;;;;;;;2.32;100.00;98596.25;5042495;28;20233;-82
2020/12/01 03:56:09;;;;;;;;;;;;;;;2.34;100.00;98599.63;5033806;28;19917;-83
2020/12/01 03:58:35;;;;;;;;;;;;;;;2.28;100.00;98600.53;5063701;28;19923;-82
2020/12/01 04:01:00;;;;;;;;;;;;;;;2.32;100.00;98592.88;5051496;28;19917;-83
2020/12/01 04:03:25;;;;;;;;;;;;;;;2.30;100.00;98592.88;5041326;28;19975;-82
2020/12/01 04:05:51;;;;;;;;;;;;;;;2.36;100.00;98597.09;5050154;28;19917;-83
2020/12/01 04:08:16;;;;;;;;;;;;;;;2.37;100.00;98589.44;5046136;28;20398;-82
2020/12/01 04:10:41;;;;;;;;;;;;;;;2.34;100.00;98599.63;5029753;28;20016;-83
2020/12/01 04:13:07;;;;;;;;;;;;;;;2.32;100.00;98585.25;5059142;28;20194;-83
2020/12/01 04:15:32;;;;;;;;;;;;;;;2.24;100.00;98608.16;5042054;28;19964;-83
2020/12/01 04:17:57;;;;;;;;;;;;;;;2.38;100.00;98596.22;5022924;28;20356;-83
2020/12/01 04:20:23;;;;;;;;;;;;;;;2.39;100.00;98608.06;5057079;28;19942;-82
2020/12/01 04:22:48;;;;;;;;;;;;;;;2.40;100.00;98599.63;5050135;28;19917;-82
2020/12/01 04:25:15;;;;;;;;;;;;;;;2.38;100.00;98600.47;5046882;28;19955;-82
2020/12/01 04:27:41;;;;;;;;;;;;;;;2.49;100.00;98602.09;5059951;28;19913;-83
2020/12/01 04:30:07;;;;;;;;;;;;;;;2.40;100.00;98604.69;5053857;28;19917;-83
2020/12/01 04:32:32;;;;;;;;;;;;;;;2.42;100.00;98602.16;5042716;28;19938;-83
2020/12/01 04:34:58;;;;;;;;;;;;;;;2.48;100.00;98602.94;5059208;28;20437;-83
2020/12/01 04:37:23;;;;;;;;;;;;;;;2.39;100.00;98597.91;5058684;28;19913;-83
2020/12/01 04:39:49;;;;;;;;;;;;;;;2.37;100.00;98599.59;5039125;28;19913;-82
2020/12/01 04:42:14;;;;;;;;;;;;;;;2.43;100.00;98602.13;5043774;28;19975;-83
2020/12/01 04:44:41;;;;;;;;;;;;;;;2.40;100.00;98607.22;5040339;28;19991;-83
2020/12/01 04:47:28;;;;;;;;;;;;;;;2.36;100.00;98607.25;5116101;27;19924;-83
2020/12/01 04:49:58;;;;;;;;;;;;;;;2.47;100.00;98603.81;5150383;27;19920;-83
2020/12/01 04:52:32;;;;;;;;;;;;;;;2.34;100.00;98609.81;5115040;28;19920;-83
2020/12/01 04:55:18;;;;;;;;;;;;;;;2.50;100.00;98611.41;5130531;28;19916;-84
2020/12/01 04:57:47;;;;;;;;;;;;;;;2.52;100.00;98611.41;5105143;28;19923;-83
2020/12/01 05:00:31;;;;;;;;;;;;;;;2.52;100.00;98616.47;5100943;28;19917;-82
2020/12/01 05:02:59;;;;;;;;;;;;;;;2.53;100.00;98614.78;5096664;28;19912;-83
2020/12/01 05:06:35;;;;;;;;;;;;;;;2.56;99.99;98617.31;5117067;28;19923;-84
2020/12/01 05:08:43;;;;;;;;;;;;;;;2.48;100.00;98602.09;5111007;28;19989;-83
2020/12/01 05:11:19;;;;;;;;;;;;;;;2.35;100.00;98615.72;5113121;28;19995;-84
2020/12/01 05:13:46;;;;;;;;;;;;;;;2.30;100.00;98618.28;5081227;28;19921;-83
2020/12/01 05:16:26;;;;;;;;;;;;;;;2.41;100.00;98613.16;5112566;28;19924;-83
2020/12/01 05:18:52;;;;;;;;;;;;;;;2.49;100.00;98612.25;5101766;28;20463;-83
2020/12/01 05:21:20;;;;;;;;;;;;;;;2.67;100.00;98616.41;5105083;28;19916;-83
2020/12/01 05:23:46;;;;;;;;;;;;;;;2.67;100.00;98625.72;5097898;28;19979;-82
2020/12/01 05:26:13;;;;;;;;;;;;;;;2.57;100.00;98629.16;5107548;28;19929;-83
2020/12/01 05:28:45;;;;;;;;;;;;;;;2.56;100.00;98630.03;5116705;28;19984;-83
2020/12/01 05:31:11;;;;;;;;;;;;;;;2.69;98.85;98626.53;5097149;28;19922;-83
2020/12/01 05:33:36;;;;;;;;;;;;;;;2.53;100.00;98630.03;5115315;28;19912;-83
2020/12/01 05:36:08;;;;;;;;;;;;;;;2.65;100.00;98635.91;5112856;28;19912;-82
2020/12/01 05:38:33;;;;;;;;;;;;;;;2.67;100.00;98636.72;5112782;28;19986;-84
2020/12/01 05:41:01;;;;;;;;;;;;;;;2.71;100.00;98640.09;5113955;28;19920;-83
2020/12/01 05:43:32;;;;;;;;;;;;;;;2.78;100.00;98646.81;5114108;28;19933;-83
2020/12/01 05:46:16;;;;;;;;;;;;;;;2.75;100.00;98641.75;5113995;28;19927;-83
2020/12/01 05:49:02;;;;;;;;;;;;;;;2.69;100.00;98647.75;5113284;28;19912;-84
2020/12/01 05:51:40;;;;;;;;;;;;;;;2.81;99.19;98640.88;5113604;28;19912;-83
2020/12/01 05:54:07;;;;;;;;;;;;;;;2.90;99.76;98646.75;5114251;28;19912;-83
2020/12/01 05:56:32;;;;;;;;;;;;;;;2.74;100.00;98645.16;5114130;28;19930;-83
2020/12/01 05:59:18;;;;;;;;;;;;;;;2.77;100.00;98645.13;5079225;28;19917;-82
2020/12/01 06:01:51;;;;;;;;;;;;;;;2.75;100.00;98651.09;5075162;28;19916;-82
2020/12/01 06:04:25;;;;;;;;;;;;;;;2.73;100.00;98649.38;5078644;28;19916;-83
2020/12/01 06:06:58;;;;;;;;;;;;;;;2.80;100.00;98655.28;5062723;28;19916;-83
2020/12/01 06:09:31;;;;;;;;;;;;;;;2.74;100.00;98650.25;5078867;28;20408;-83
2020/12/01 06:11:58;;;;;;;;;;;;;;;2.79;99.38;98655.31;5078314;28;19964;-82
2020/12/01 06:14:26;;;;;;;;;;;;;;;2.89;99.21;98655.22;5064117;28;20288;-83
2020/12/01 06:16:54;;;;;;;;;;;;;;;2.81;99.24;98654.44;5078540;28;19912;-83
2020/12/01 06:19:20;;;;;;;;;;;;;;;2.84;99.74;98667.13;5078754;28;19947;-83
2020/12/01 06:22:04;;;;;;;;;;;;;;;2.88;100.00;98655.25;5081693;28;19955;-82
2020/12/01 06:24:35;;;;;;;;;;;;;;;2.80;100.00;98654.44;5079050;28;19913;-83
2020/12/01 06:27:18;;;;;;;;;;;;;;;2.87;100.00;98651.88;5079676;28;19942;-83
2020/12/01 06:29:44;;;;;;;;;;;;;;;2.87;98.89;98656.09;5077525;28;19992;-83
2020/12/01 06:32:27;;;;;;;;;;;;;;;2.84;98.80;98661.22;5081198;28;19959;-83
2020/12/01 06:35:16;;;;;;;;;;;;;;;2.90;99.96;98656.94;5077652;28;19923;-84
2020/12/01 06:38:00;;;;;;;;;;;;;;;2.93;100.00;98663.69;5078195;28;19920;-83
2020/12/01 06:40:25;;;;;;;;;;;;;;;2.83;99.59;98655.28;5077736;28;19982;-82
2020/12/01 06:42:52;;;;;;;;;;;;;;;2.85;99.91;98657.78;5081052;28;20369;-84
2020/12/01 06:45:20;;;;;;;;;;;;;;;2.90;100.00;98659.47;5062899;28;19920;-84
2020/12/01 06:47:46;;;;;;;;;;;;;;;2.89;100.00;98660.31;5081670;28;19919;-84
2020/12/01 06:50:14;;;;;;;;;;;;;;;2.95;100.00;98664.53;5081005;28;19913;-84
2020/12/01 06:52:39;;;;;;;;;;;;;;;2.79;100.00;98663.78;5082241;28;19913;-82
2020/12/01 06:55:04;;;;;;;;;;;;;;;2.84;99.88;98661.22;5079784;28;20008;-82
2020/12/01 06:57:29;;;;;;;;;;;;;;;2.92;100.00;98665.41;5078829;28;19913;-82
2020/12/01 06:59:55;;;;;;;;;;;;;;;2.92;100.00;98667.94;5080206;28;19912;-84
2020/12/01 07:02:20;;;;;;;;;;;;;;;3.06;100.00;98665.28;5061232;28;19919;-83
2020/12/01 07:04:45;;;;;;;;;;;;;;;2.96;99.84;98673.00;5077839;28;20018;-83
2020/12/01 07:07:27;;;;;;;;;;;;;;;3.03;99.13;98677.19;5076744;28;19916;-83
2020/12/01 07:09:53;;;;;;;;;;;;;;;3.00;98.81;98680.59;5075548;28;19916;-83
2020/12/01 07:12:33;;;;;;;;;;;;;;;3.04;98.74;98681.44;5077335;28;19927;-83
2020/12/01 07:15:00;;;;;;;;;;;;;;;3.20;99.17;98684.72;5078574;28;19934;-82
2020/12/01 07:17:35;;;;;;;;;;;;;;;3.18;99.22;98692.34;5075901;28;20234;-83
2020/12/01 07:20:17;;;;;;;;;;;;;;;3.26;97.97;98694.81;5077437;28;19913;-84
2020/12/01 07:23:15;;;;;;;;;;;;;;;3.14;98.66;98698.31;5078636;28;20452;-83
2020/12/01 07:25:49;;;;;;;;;;;;;;;3.07;98.77;98702.59;5078006;28;19917;-82
2020/12/01 07:28:35;;;;;;;;;;;;;;;3.10;99.20;98704.25;5075848;28;19916;-84
2020/12/01 07:31:03;;;;;;;;;;;;;;;2.99;99.96;98701.81;5075936;28;19917;-85
2020/12/01 07:33:30;;;;;;;;;;;;;;;3.20;100.00;98705.06;5075803;28;19912;-84
2020/12/01 07:35:57;;;;;;;;;;;;;;;3.12;98.42;98710.19;5059520;28;19913;-85
2020/12/01 07:38:31;;;;;;;;;;;;;;;3.04;99.83;98704.31;5075812;28;19913;-85
2020/12/01 07:41:09;;;;;;;;;;;;;;;3.10;98.65;98705.13;5060084;28;20362;-85
2020/12/01 07:43:34;;;;;;;;;;;;;;;3.01;99.63;98711.97;5076260;28;19920;-85
2020/12/01 07:46:00;;;;;;;;;;;;;;;3.03;100.00;98717.88;5075969;28;19966;-84
2020/12/01 07:48:26;;;;;;;;;;;;;;;3.07;100.00;98720.41;5076041;28;20297;-85
2020/12/01 07:50:51;;;;;;;;;;;;;;;3.15;100.00;98720.38;5076595;28;19912;-85
2020/12/01 07:53:18;;;;;;;;;;;;;;;3.03;100.00;98723.81;5059290;28;20382;-85
2020/12/01 07:55:48;;;;;;;;;;;;;;;3.17;98.10;98731.38;5059468;28;20010;-85
2020/12/01 07:58:18;;;;;;;;;;;;;;;3.00;100.00;98733.19;5075199;28;19920;-86
2020/12/01 08:00:47;;;;;;;;;;;;;;;2.93;100.00;98738.28;5078110;28;19925;-85
2020/12/01 08:03:13;;;;;;;;;;;;;;;2.98;100.00;98730.63;5056768;28;19913;-85
2020/12/01 08:05:39;;;;;;;;;;;;;;;2.96;99.50;98739.97;5056681;28;19978;-85
2020/12/01 08:08:04;;;;;;;;;;;;;;;3.10;100.00;98739.88;5055213;28;20378;-85
2020/12/01 08:10:30;;;;;;;;;;;;;;;3.20;100.00;98736.44;5055177;28;20401;-84
2020/12/01 08:12:58;;;;;;;;;;;;;;;3.12;100.00;98733.09;5063241;28;19916;-84
2020/12/01 08:15:24;;;;;;;;;;;;;;;3.19;100.00;98737.28;5077611;28;20429;-84
2020/12/01 08:17:50;;;;;;;;;;;;;;;3.23;99.37;98733.88;5060776;28;19962;-84
2020/12/01 08:20:16;;;;;;;;;;;;;;;3.23;99.83;98736.41;5076579;28;19944;-84
2020/12/01 08:22:41;;;;;;;;;;;;;;;3.27;98.94;98740.63;5078132;28;19963;-82
2020/12/01 08:25:08;;;;;;;;;;;;;;;3.35;98.66;98736.34;5079854;28;19916;-82
2020/12/01 08:27:38;;;;;;;;;;;;;;;3.22;99.86;98744.06;5079571;28;19912;-82
2020/12/01 08:30:04;;;;;;;;;;;;;;;3.20;99.12;98751.72;5062060;28;20403;-82
2020/12/01 08:32:34;;;;;;;;;;;;;;;3.30;99.80;98749.94;5078849;28;19913;-82
2020/12/01 08:35:18;;;;;;;;;;;;;;;3.31;98.79;98755.03;5078981;28;20335;-82
2020/12/01 08:37:50;;;;;;;;;;;;;;;3.33;98.76;98748.22;5080481;28;20026;-82
2020/12/01 08:40:24;;;;;;;;;;;;;;;3.38;100.00;98755.00;5080796;28;19920;-82
2020/12/01 08:43:13;;;;;;;;;;;;;;;3.51;100.00;98754.91;5079924;28;19999;-82
2020/12/01 08:45:38;;;;;;;;;;;;;;;3.71;98.79;98748.78;5076522;28;19970;-81
2020/12/01 08:48:04;;;;;;;;;;;;;;;3.68;98.36;98757.28;5077116;28;20308;-82
2020/12/01 08:50:35;;;;;;;;;;;;;;;3.49;99.57;98759.16;5078035;28;20392;-82
2020/12/01 08:53:05;;;;;;;;;;;;;;;3.61;100.00;98765.84;5077157;28;19927;-82
2020/12/01 08:55:38;;;;;;;;;;;;;;;3.54;100.00;98777.78;5076294;28;19919;-82
2020/12/01 08:58:10;;;;;;;;;;;;;;;3.58;100.00;98776.06;5079426;28;19959;-82
2020/12/01 09:00:35;;;;;;;;;;;;;;;3.58;100.00;98775.19;5081479;28;20443;-81
2020/12/01 09:03:10;;;;;;;;;;;;;;;3.64;100.00;98773.44;5080056;28;19922;-82
2020/12/01 09:05:37;;;;;;;;;;;;;;;3.62;99.70;98776.88;5080289;28;20409;-82
2020/12/01 09:08:28;;;;;;;;;;;;;;;3.62;99.84;98782.78;5080055;28;19912;-82
2020/12/01 09:13:52;;;;;;;;;;;;;;;3.66;99.37;98781.94;5081348;28;19922;-82
2020/12/01 09:16:31;;;;;;;;;;;;;;;3.65;98.42;98775.16;5081864;28;19913;-82
2020/12/01 09:24:16;;;;;;;;;;;;;;;3.58;100.00;98773.53;5081264;28;19924;-82
2020/12/01 09:26:42;;;;;;;;;;;;;;;3.61;100.00;98783.66;5064089;28;19918;-82
2020/12/01 09:29:07;;;;;;;;;;;;;;;3.69;100.00;98781.88;5081472;28;19995;-82
2020/12/01 09:31:35;;;;;;;;;;;;;;;3.72;100.00;98791.22;5081789;28;19919;-82
2020/12/01 09:34:00;;;;;;;;;;;;;;;3.66;100.00;98788.72;5085761;28;19912;-82
2020/12/01 09:36:26;;;;;;;;;;;;;;;3.71;100.00;98795.47;5086181;28;20011;-82
2020/12/01 09:38:51;;;;;;;;;;;;;;;3.80;100.00;98798.81;5084976;28;19934;-82
2020/12/01 09:41:18;;;;;;;;;;;;;;;3.75;100.00;98796.28;5084980;28;19947;-82
2020/12/01 09:44:13;;;;;;;;;;;;;;;3.85;99.98;98797.06;5082183;28;19912;-82
2020/12/01 09:46:41;;;;;;;;;;;;;;;3.75;99.61;98799.69;5082105;28;19924;-82
2020/12/01 09:49:07;;;;;;;;;;;;;;;3.75;100.00;98797.13;5083398;28;19913;-82
2020/12/01 09:51:32;;;;;;;;;;;;;;;3.76;99.69;98803.94;5083937;28;19919;-83
2020/12/01 09:54:13;;;;;;;;;;;;;;;3.83;97.71;98806.41;5083416;28;20296;-82
2020/12/01 10:10:23;;;;;;;;;;;;;;;3.87;100.00;98805.53;5080859;28;19912;-82
2020/12/01 10:12:56;;;;;;;;;;;;;;;4.02;99.44;98804.56;5082669;28;19912;-83
2020/12/01 10:16:31;;;;;;;;;;;;;;;4.02;99.47;98805.41;5081883;28;19912;-83
2020/12/01 10:36:39;;;;;;;;;;;;;;;4.08;100.00;98807.91;5079191;28;19944;-84
2020/12/01 10:39:06;;;;;;;;;;;;;;;4.22;100.00;98806.91;5062667;28;20419;-83
2020/12/01 10:41:32;;;;;;;;;;;;;;;4.26;100.00;98806.03;5078888;28;19995;-84
2020/12/01 10:43:57;;;;;;;;;;;;;;;4.14;100.00;98805.28;5061974;28;19967;-84
2020/12/01 10:46:22;;;;;;;;;;;;;;;4.13;100.00;98807.88;5061114;28;19928;-84
2020/12/01 10:48:48;;;;;;;;;;;;;;;4.27;100.00;98815.38;5077634;28;19912;-84
2020/12/01 10:51:13;;;;;;;;;;;;;;;4.17;100.00;98810.38;5077891;28;19916;-84
2020/12/01 10:53:39;;;;;;;;;;;;;;;4.40;100.00;98811.84;5061571;28;19913;-84
2020/12/01 10:56:04;;;;;;;;;;;;;;;4.26;100.00;98808.59;5080470;28;20005;-83
2020/12/01 10:58:29;;;;;;;;;;;;;;;4.19;100.00;98807.78;5079440;28;20336;-84
2020/12/01 11:00:55;;;;;;;;;;;;;;;4.24;100.00;98810.31;5078938;28;19930;-83
2020/12/01 11:03:20;;;;;;;;;;;;;;;4.24;100.00;98810.31;5079648;28;19996;-83
2020/12/01 11:05:46;;;;;;;;;;;;;;;4.23;100.00;98809.47;5079388;28;19923;-84
2020/12/01 11:08:12;;;;;;;;;;;;;;;4.15;100.00;98809.53;5079044;28;19935;-83
2020/12/01 11:10:37;;;;;;;;;;;;;;;4.11;100.00;98815.53;5080053;28;19912;-83
2020/12/01 11:13:02;;;;;;;;;;;;;;;4.22;99.61;98814.56;5079754;28;20397;-84
2020/12/01 11:15:28;;;;;;;;;;;;;;;4.18;100.00;98806.97;5078497;28;19913;-84
2020/12/01 11:17:53;;;;;;;;;;;;;;;4.25;100.00;98806.91;5077982;28;19931;-84
2020/12/01 11:20:18;;;;;;;;;;;;;;;4.37;100.00;98811.88;5077834;28;19965;-84
2020/12/01 11:22:48;;;;;;;;;;;;;;;4.12;100.00;98817.19;5061569;28;19939;-84
2020/12/01 11:25:13;;;;;;;;;;;;;;;4.29;100.00;98818.75;5063286;28;20007;-84
2020/12/01 11:27:38;;;;;;;;;;;;;;;4.47;98.19;98821.13;5079004;28;19959;-83
2020/12/01 11:30:04;;;;;;;;;;;;;;;4.39;100.00;98825.47;5062236;28;19931;-84
2020/12/01 11:32:29;;;;;;;;;;;;;;;4.38;100.00;98823.78;5079220;28;20418;-84
2020/12/01 11:34:54;;;;;;;;;;;;;;;4.40;100.00;98829.69;5077916;28;19943;-84
2020/12/01 11:37:20;;;;;;;;;;;;;;;4.75;100.00;98831.88;5061599;28;19987;-84
2020/12/01 11:39:45;;;;;;;;;;;;;;;4.71;100.00;98826.81;5080586;28;20365;-84
2020/12/01 11:42:11;;;;;;;;;;;;;;;4.92;100.00;98823.19;5064154;28;19923;-84
2020/12/01 11:44:36;;;;;;;;;;;;;;;4.69;100.00;98821.72;5077339;28;19934;-84
2020/12/01 11:47:02;;;;;;;;;;;;;;;4.61;100.00;98819.28;5075438;28;19920;-84
2020/12/01 11:49:27;;;;;;;;;;;;;;;4.45;100.00;98829.63;5060207;28;20331;-84
2020/12/01 11:51:52;;;;;;;;;;;;;;;4.38;100.00;98826.34;5078147;28;20305;-84
2020/12/01 11:54:18;;;;;;;;;;;;;;;4.37;100.00;98828.00;5060326;28;19913;-84
2020/12/01 11:56:43;;;;;;;;;;;;;;;4.39;100.00;98830.56;5077095;28;20393;-84
2020/12/01 11:59:08;;;;;;;;;;;;;;;4.55;100.00;98829.53;5075606;28;19912;-84
2020/12/01 12:01:34;;;;;;;;;;;;;;;4.61;100.00;98841.41;5059585;28;19924;-84
2020/12/01 12:03:59;;;;;;;;;;;;;;;4.69;100.00;98833.66;5075582;28;19923;-84
2020/12/01 12:06:25;;;;;;;;;;;;;;;4.74;98.33;98836.97;5077256;28;19916;-84
2020/12/01 12:08:50;;;;;;;;;;;;;;;4.85;99.78;98834.31;5076545;28;19918;-84
2020/12/01 12:11:15;;;;;;;;;;;;;;;4.83;99.65;98836.88;5077084;28;20275;-84
2020/12/01 12:13:45;;;;;;;;;;;;;;;4.90;99.20;98828.28;5076339;28;19912;-84
2020/12/01 12:16:11;;;;;;;;;;;;;;;5.09;98.49;98825.53;5074304;28;19916;-84
2020/12/01 12:18:36;;;;;;;;;;;;;;;4.79;100.00;98840.34;5076456;28;20489;-83
2020/12/01 12:21:01;;;;;;;;;;;;;;;4.80;99.93;98831.81;5076358;28;19912;-83
2020/12/01 12:23:27;;;;;;;;;;;;;;;4.84;100.00;98832.66;5076701;28;19948;-84
2020/12/01 12:25:52;;;;;;;;;;;;;;;4.91;99.52;98832.53;5077964;28;20301;-83
2020/12/01 12:28:17;;;;;;;;;;;;;;;4.92;100.00;98831.66;5078992;28;19917;-84
2020/12/01 12:30:43;;;;;;;;;;;;;;;5.06;100.00;98831.50;5079700;28;19912;-83
2020/12/01 12:33:08;;;;;;;;;;;;;;;4.97;98.33;98840.13;5063047;28;19916;-84
2020/12/01 12:35:33;;;;;;;;;;;;;;;5.06;100.00;98843.41;5078324;28;20038;-83
2020/12/01 12:37:59;;;;;;;;;;;;;;;5.05;98.91;98845.13;5082192;28;19913;-83
2020/12/01 12:40:24;;;;;;;;;;;;;;;4.93;99.23;98850.41;5080388;28;19913;-83
2020/12/01 12:42:49;;;;;;;;;;;;;;;4.88;100.00;98858.09;5082369;28;19987;-84
2020/12/01 12:45:15;;;;;;;;;;;;;;;4.98;99.06;98857.13;5081408;28;20008;-82
2020/12/01 12:47:40;;;;;;;;;;;;;;;4.77;99.63;98859.94;5064458;28;19920;-83
2020/12/01 12:50:06;;;;;;;;;;;;;;;4.83;100.00;98864.94;5080789;28;19912;-81
2020/12/01 12:52:31;;;;;;;;;;;;;;;4.90;100.00;98870.81;5080158;28;20015;-82
2020/12/01 12:54:56;;;;;;;;;;;;;;;5.08;100.00;98859.56;5078756;28;19920;-84
2020/12/01 12:57:22;;;;;;;;;;;;;;;4.96;98.90;98865.66;5075960;28;20294;-84
2020/12/01 12:59:47;;;;;;;;;;;;;;;4.91;99.19;98865.72;5081477;28;19912;-82
2020/12/01 13:02:12;;;;;;;;;;;;;;;4.71;100.00;98868.47;5081212;28;19944;-82
2020/12/01 13:04:38;;;;;;;;;;;;;;;4.93;100.00;98879.31;5064029;28;19948;-81
2020/12/01 13:07:03;;;;;;;;;;;;;;;4.98;100.00;98877.53;5080031;28;19913;-82
2020/12/01 13:09:29;;;;;;;;;;;;;;;4.94;98.79;98875.88;5086308;28;19959;-82
2020/12/01 13:11:54;;;;;;;;;;;;;;;4.76;100.00;98883.72;5085604;28;19916;-82
2020/12/01 13:14:19;;;;;;;;;;;;;;;4.68;100.00;98888.94;5083995;28;19912;-82
2020/12/01 13:16:48;;;;;;;;;;;;;;;4.65;100.00;98885.53;5066379;28;19927;-81
2020/12/01 13:19:13;;;;;;;;;;;;;;;4.62;100.00;98878.78;5083471;28;20340;-82
2020/12/01 13:21:38;;;;;;;;;;;;;;;4.80;100.00;98883.69;5084788;28;19966;-82
2020/12/01 13:24:04;;;;;;;;;;;;;;;4.92;99.53;98882.69;5084443;28;19938;-84
2020/12/01 13:26:29;;;;;;;;;;;;;;;4.85;100.00;98886.19;5084937;28;19935;-82
2020/12/01 13:28:54;;;;;;;;;;;;;;;4.68;100.00;98883.00;5084807;28;19916;-84
2020/12/01 13:31:20;;;;;;;;;;;;;;;4.75;100.00;98887.16;5067218;28;19961;-82